sensor_id;sensor_type;location;lat;lon;timestamp;pressure;altitude;pressure_sealevel;temperature;humidity
5879;BME280;2965;42.640;23.370;2023-07-22T04:01:58;94539.84;;;22.54;100.00
5879;BME280;2965;42.640;23.370;2023-07-22T04:04:24;94537.47;;;22.58;100.00
5879;BME280;2965;42.640;23.370;2023-07-22T04:06:49;94541.75;;;22.64;100.00
5879;BME280;2965;42.640;23.370;2023-07-22T04:09:14;94541.66;;;22.49;100.00
5879;BME280;2965;42.640;23.370;2023-07-22T04:11:40;94534.53;;;22.59;100.00
5879;BME280;2965;42.640;23.370;2023-07-22T04:14:05;94536.44;;;22.64;100.00
5879;BME280;2965;42.640;23.370;2023-07-22T04:16:30;94537.53;;;22.68;100.00
5879;BME280;2965;42.640;23.370;2023-07-22T04:18:56;94539.41;;;22.73;100.00
5879;BME280;2965;42.640;23.370;2023-07-22T04:21:21;94533.34;;;22.82;100.00
5879;BME280;2965;42.640;23.370;2023-07-22T04:23:47;94534.44;;;22.86;100.00
5879;BME280;2965;42.640;23.370;2023-07-22T04:26:12;94547.84;;;22.97;100.00
5879;BME280;2965;42.640;23.370;2023-07-22T04:28:37;94545.97;;;22.97;100.00
5879;BME280;2965;42.640;23.370;2023-07-22T04:31:03;94550.28;;;23.03;100.00
5879;BME280;2965;42.640;23.370;2023-07-22T04:33:29;94554.53;;;23.04;100.00
5879;BME280;2965;42.640;23.370;2023-07-22T04:35:57;94560.22;;;23.23;100.00
5879;BME280;2965;42.640;23.370;2023-07-22T04:38:22;94559.44;;;23.28;100.00
5879;BME280;2965;42.640;23.370;2023-07-22T04:40:47;94558.66;;;23.32;100.00
5879;BME280;2965;42.640;23.370;2023-07-22T04:43:13;94554.41;;;23.36;100.00
5879;BME280;2965;42.640;23.370;2023-07-22T04:45:38;94559.72;;;23.36;100.00
5879;BME280;2965;42.640;23.370;2023-07-22T04:48:06;94557.84;;;23.27;100.00
5879;BME280;2965;42.640;23.370;2023-07-22T04:50:32;94560.00;;;23.35;100.00
5879;BME280;2965;42.640;23.370;2023-07-22T04:52:58;94557.66;;;23.49;100.00
5879;BME280;2965;42.640;23.370;2023-07-22T04:55:23;94561.69;;;23.61;100.00
5879;BME280;2965;42.640;23.370;2023-07-22T04:57:49;94556.66;;;23.65;100.00
5879;BME280;2965;42.640;23.370;2023-07-22T05:00:16;94562.53;;;23.72;100.00
5879;BME280;2965;42.640;23.370;2023-07-22T05:02:42;94563.34;;;23.73;100.00
5879;BME280;2965;42.640;23.370;2023-07-22T05:05:11;94554.00;;;23.80;100.00
5879;BME280;2965;42.640;23.370;2023-07-22T05:07:37;94567.81;;;23.62;100.00
5879;BME280;2965;42.640;23.370;2023-07-22T05:10:02;94569.38;;;23.42;100.00
5879;BME280;2965;42.640;23.370;2023-07-22T05:12:28;94574.66;;;23.27;100.00
5879;BME280;2965;42.640;23.370;2023-07-22T05:14:53;94577.38;;;23.37;100.00
5879;BME280;2965;42.640;23.370;2023-07-22T05:17:19;94579.56;;;23.51;100.00
5879;BME280;2965;42.640;23.370;2023-07-22T05:19:44;94576.94;;;23.66;100.00
5879;BME280;2965;42.640;23.370;2023-07-22T05:22:10;94580.72;;;23.75;100.00
5879;BME280;2965;42.640;23.370;2023-07-22T05:24:35;94586.03;;;23.70;100.00
5879;BME280;2965;42.640;23.370;2023-07-22T05:27:00;94572.47;;;23.82;100.00
5879;BME280;2965;42.640;23.370;2023-07-22T05:29:26;94576.47;;;23.95;100.00
5879;BME280;2965;42.640;23.370;2023-07-22T05:31:51;94573.81;;;24.10;100.00
5879;BME280;2965;42.640;23.370;2023-07-22T05:34:16;94580.25;;;24.24;100.00
5879;BME280;2965;42.640;23.370;2023-07-22T05:36:42;94577.03;;;24.32;100.00
5879;BME280;2965;42.640;23.370;2023-07-22T05:39:07;94577.56;;;24.34;100.00
5879;BME280;2965;42.640;23.370;2023-07-22T05:41:33;94570.09;;;24.26;100.00
5879;BME280;2965;42.640;23.370;2023-07-22T05:43:59;94573.59;;;24.37;100.00
5879;BME280;2965;42.640;23.370;2023-07-22T05:46:24;94574.13;;;24.44;100.00
5879;BME280;2965;42.640;23.370;2023-07-22T05:48:50;94577.06;;;24.53;100.00
5879;BME280;2965;42.640;23.370;2023-07-22T05:51:19;94583.47;;;24.47;100.00
5879;BME280;2965;42.640;23.370;2023-07-22T05:53:44;94582.66;;;24.36;100.00
5879;BME280;2965;42.640;23.370;2023-07-22T05:56:09;94589.38;;;24.49;100.00
5879;BME280;2965;42.640;23.370;2023-07-22T05:58:35;94583.75;;;24.45;100.00
5879;BME280;2965;42.640;23.370;2023-07-22T06:01:01;94580.28;;;24.45;100.00
5879;BME280;2965;42.640;23.370;2023-07-22T06:03:26;94577.06;;;24.53;100.00
5879;BME280;2965;42.640;23.370;2023-07-22T06:05:52;94572.78;;;24.67;100.00
5879;BME280;2965;42.640;23.370;2023-07-22T06:08:17;94592.25;;;24.78;100.00
5879;BME280;2965;42.640;23.370;2023-07-22T06:10:42;94597.59;;;24.83;100.00
5879;BME280;2965;42.640;23.370;2023-07-22T06:13:08;94599.50;;;24.77;100.00
5879;BME280;2965;42.640;23.370;2023-07-22T06:15:34;94605.91;;;24.86;100.00
5879;BME280;2965;42.640;23.370;2023-07-22T06:18:00;94610.19;;;24.77;100.00
5879;BME280;2965;42.640;23.370;2023-07-22T06:20:26;94617.69;;;24.65;100.00
5879;BME280;2965;42.640;23.370;2023-07-22T06:22:51;94614.72;;;24.87;100.00
5879;BME280;2965;42.640;23.370;2023-07-22T06:25:17;94618.75;;;24.89;100.00
5879;BME280;2965;42.640;23.370;2023-07-22T06:27:43;94619.25;;;25.07;100.00
5879;BME280;2965;42.640;23.370;2023-07-22T06:30:08;94624.56;;;25.22;100.00
5879;BME280;2965;42.640;23.370;2023-07-22T06:32:37;94624.53;;;25.37;100.00
5879;BME280;2965;42.640;23.370;2023-07-22T06:35:03;94621.31;;;25.35;100.00
5879;BME280;2965;42.640;23.370;2023-07-22T06:37:28;94626.66;;;25.46;100.00
5879;BME280;2965;42.640;23.370;2023-07-22T06:39:53;94629.09;;;25.37;100.00
5879;BME280;2965;42.640;23.370;2023-07-22T06:42:19;94640.50;;;25.58;100.00
5879;BME280;2965;42.640;23.370;2023-07-22T06:44:44;94630.88;;;25.62;100.00
5879;BME280;2965;42.640;23.370;2023-07-22T06:47:10;94631.91;;;25.66;100.00
5879;BME280;2965;42.640;23.370;2023-07-22T06:49:35;94630.84;;;25.77;100.00
5879;BME280;2965;42.640;23.370;2023-07-22T06:52:00;94634.56;;;25.81;100.00
5879;BME280;2965;42.640;23.370;2023-07-22T06:54:27;94626.00;;;25.79;100.00
5879;BME280;2965;42.640;23.370;2023-07-22T06:56:52;94625.16;;;25.84;100.00
5879;BME280;2965;42.640;23.370;2023-07-22T06:59:18;94626.44;;;25.97;100.00
5879;BME280;2965;42.640;23.370;2023-07-22T07:01:43;94628.56;;;26.00;100.00
5879;BME280;2965;42.640;23.370;2023-07-22T07:04:08;94616.72;;;26.11;100.00
5879;BME280;2965;42.640;23.370;2023-07-22T07:06:34;94611.91;;;26.08;100.00
5879;BME280;2965;42.640;23.370;2023-07-22T07:08:59;94616.78;;;26.01;100.00
5879;BME280;2965;42.640;23.370;2023-07-22T07:11:26;94614.06;;;26.06;100.00
5879;BME280;2965;42.640;23.370;2023-07-22T07:13:53;94616.97;;;26.14;100.00
5879;BME280;2965;42.640;23.370;2023-07-22T07:16:23;94621.97;;;26.26;100.00
5879;BME280;2965;42.640;23.370;2023-07-22T07:18:49;94616.03;;;26.34;100.00
5879;BME280;2965;42.640;23.370;2023-07-22T07:21:15;94615.41;;;26.42;100.00
5879;BME280;2965;42.640;23.370;2023-07-22T07:23:40;94615.09;;;26.54;100.00
5879;BME280;2965;42.640;23.370;2023-07-22T07:26:06;94615.28;;;26.63;100.00
5879;BME280;2965;42.640;23.370;2023-07-22T07:28:31;94603.53;;;26.59;100.00
5879;BME280;2965;42.640;23.370;2023-07-22T07:30:57;94606.06;;;26.45;100.00
5879;BME280;2965;42.640;23.370;2023-07-22T07:33:22;94597.66;;;26.57;100.00
5879;BME280;2965;42.640;23.370;2023-07-22T07:35:47;94588.72;;;26.66;100.00
5879;BME280;2965;42.640;23.370;2023-07-22T07:38:13;94591.38;;;26.66;100.00
5879;BME280;2965;42.640;23.370;2023-07-22T07:40:38;94590.50;;;26.76;100.00
5879;BME280;2965;42.640;23.370;2023-07-22T07:43:04;94593.06;;;26.86;100.00
5879;BME280;2965;42.640;23.370;2023-07-22T07:45:29;94600.31;;;26.86;100.00
5879;BME280;2965;42.640;23.370;2023-07-22T07:47:55;94592.88;;;26.83;100.00
5879;BME280;2965;42.640;23.370;2023-07-22T07:50:20;94597.28;;;26.98;100.00
5879;BME280;2965;42.640;23.370;2023-07-22T07:52:46;94597.03;;;27.23;100.00
5879;BME280;2965;42.640;23.370;2023-07-22T07:55:11;94602.34;;;27.28;100.00
5879;BME280;2965;42.640;23.370;2023-07-22T07:57:37;94595.50;;;27.41;100.00
5879;BME280;2965;42.640;23.370;2023-07-22T08:00:03;94591.47;;;27.38;98.95
5879;BME280;2965;42.640;23.370;2023-07-22T08:02:28;94587.81;;;27.29;100.00
5879;BME280;2965;42.640;23.370;2023-07-22T08:04:53;94590.13;;;27.41;100.00
5879;BME280;2965;42.640;23.370;2023-07-22T08:07:19;94585.56;;;27.60;100.00
5879;BME280;2965;42.640;23.370;2023-07-22T08:09:47;94587.81;;;27.77;100.00
5879;BME280;2965;42.640;23.370;2023-07-22T08:12:14;94585.34;;;28.00;100.00
5879;BME280;2965;42.640;23.370;2023-07-22T08:14:39;94586.38;;;28.04;98.72
5879;BME280;2965;42.640;23.370;2023-07-22T08:17:05;94585.19;;;28.10;95.95
5879;BME280;2965;42.640;23.370;2023-07-22T08:19:30;94578.81;;;28.06;96.60
5879;BME280;2965;42.640;23.370;2023-07-22T08:21:56;94586.00;;;28.10;96.85
5879;BME280;2965;42.640;23.370;2023-07-22T08:24:21;94580.25;;;28.17;97.12
5879;BME280;2965;42.640;23.370;2023-07-22T08:26:47;94578.38;;;28.17;96.76
5879;BME280;2965;42.640;23.370;2023-07-22T08:29:12;94576.19;;;28.38;95.64
5879;BME280;2965;42.640;23.370;2023-07-22T08:31:37;94564.28;;;28.58;94.80
5879;BME280;2965;42.640;23.370;2023-07-22T08:34:03;94574.72;;;28.79;94.97
5879;BME280;2965;42.640;23.370;2023-07-22T08:36:28;94578.66;;;28.67;89.10
5879;BME280;2965;42.640;23.370;2023-07-22T08:38:53;94570.81;;;28.71;90.80
5879;BME280;2965;42.640;23.370;2023-07-22T08:41:19;94563.97;;;28.92;88.32
5879;BME280;2965;42.640;23.370;2023-07-22T08:43:45;94564.31;;;29.05;88.73
5879;BME280;2965;42.640;23.370;2023-07-22T08:46:15;94560.22;;;29.21;89.37
5879;BME280;2965;42.640;23.370;2023-07-22T08:48:42;94550.44;;;29.39;88.92
5879;BME280;2965;42.640;23.370;2023-07-22T08:51:21;94542.66;;;29.65;89.41
5879;BME280;2965;42.640;23.370;2023-07-22T08:53:49;94541.78;;;29.92;86.18
5879;BME280;2965;42.640;23.370;2023-07-22T08:56:16;94519.22;;;30.02;90.09
5879;BME280;2965;42.640;23.370;2023-07-22T08:58:41;94528.94;;;30.25;89.41
5879;BME280;2965;42.640;23.370;2023-07-22T09:01:08;94517.03;;;30.26;85.75
5879;BME280;2965;42.640;23.370;2023-07-22T09:03:33;94525.38;;;30.16;85.66
5879;BME280;2965;42.640;23.370;2023-07-22T09:05:59;94516.19;;;30.17;82.76
5879;BME280;2965;42.640;23.370;2023-07-22T09:08:24;94529.47;;;30.36;87.35
5879;BME280;2965;42.640;23.370;2023-07-22T09:10:50;94524.44;;;30.43;84.79
5879;BME280;2965;42.640;23.370;2023-07-22T09:13:17;94518.00;;;30.53;86.74
5879;BME280;2965;42.640;23.370;2023-07-22T09:15:44;94529.50;;;30.67;79.50
5879;BME280;2965;42.640;23.370;2023-07-22T09:18:13;94526.09;;;30.75;81.24
5879;BME280;2965;42.640;23.370;2023-07-22T09:20:40;94520.59;;;30.89;81.90
5879;BME280;2965;42.640;23.370;2023-07-22T09:23:05;94520.03;;;31.01;81.25
5879;BME280;2965;42.640;23.370;2023-07-22T09:25:31;94526.16;;;30.93;81.77
5879;BME280;2965;42.640;23.370;2023-07-22T09:28:00;94516.34;;;30.97;81.63
5879;BME280;2965;42.640;23.370;2023-07-22T09:30:39;94518.50;;;31.17;83.72
5879;BME280;2965;42.640;23.370;2023-07-22T09:33:07;94516.63;;;31.26;78.86
5879;BME280;2965;42.640;23.370;2023-07-22T09:35:45;94514.53;;;31.23;82.43
5879;BME280;2965;42.640;23.370;2023-07-22T09:38:10;94518.75;;;31.47;81.72
5879;BME280;2965;42.640;23.370;2023-07-22T09:40:39;94525.13;;;31.51;78.17
5879;BME280;2965;42.640;23.370;2023-07-22T09:43:05;94509.56;;;31.65;73.50
5879;BME280;2965;42.640;23.370;2023-07-22T09:45:31;94511.94;;;31.58;74.56
5879;BME280;2965;42.640;23.370;2023-07-22T09:47:58;94509.25;;;31.58;72.06
5879;BME280;2965;42.640;23.370;2023-07-22T09:50:25;94507.25;;;31.89;75.53
5879;BME280;2965;42.640;23.370;2023-07-22T09:52:55;94508.81;;;31.90;72.06
5879;BME280;2965;42.640;23.370;2023-07-22T09:55:25;94494.66;;;32.11;70.27
5879;BME280;2965;42.640;23.370;2023-07-22T09:57:58;94498.78;;;32.34;68.90
5879;BME280;2965;42.640;23.370;2023-07-22T10:00:27;94490.81;;;32.47;67.87
5879;BME280;2965;42.640;23.370;2023-07-22T10:02:56;94485.97;;;32.78;76.20
5879;BME280;2965;42.640;23.370;2023-07-22T10:05:21;94485.00;;;32.74;68.47
5879;BME280;2965;42.640;23.370;2023-07-22T10:07:54;94477.31;;;32.94;69.80
5879;BME280;2965;42.640;23.370;2023-07-22T10:12:54;94486.41;;;33.27;68.57
5879;BME280;2965;42.640;23.370;2023-07-22T10:15:20;94497.19;;;33.45;66.81
5879;BME280;2965;42.640;23.370;2023-07-22T10:17:45;94489.66;;;33.71;67.58
5879;BME280;2965;42.640;23.370;2023-07-22T10:20:12;94489.13;;;33.57;65.86
5879;BME280;2965;42.640;23.370;2023-07-22T10:22:42;94482.13;;;33.77;64.52
5879;BME280;2965;42.640;23.370;2023-07-22T10:25:08;94490.81;;;34.12;64.65
5879;BME280;2965;42.640;23.370;2023-07-22T10:27:35;94497.56;;;34.39;61.07
5879;BME280;2965;42.640;23.370;2023-07-22T10:30:01;94483.78;;;34.65;63.00
5879;BME280;2965;42.640;23.370;2023-07-22T10:32:35;94488.13;;;34.91;60.50
5879;BME280;2965;42.640;23.370;2023-07-22T10:35:01;94485.41;;;34.91;57.27
5879;BME280;2965;42.640;23.370;2023-07-22T10:37:31;94478.19;;;35.19;59.04
5879;BME280;2965;42.640;23.370;2023-07-22T10:40:16;94475.25;;;35.12;55.94
5879;BME280;2965;42.640;23.370;2023-07-22T10:45:37;94460.50;;;35.62;56.18
5879;BME280;2965;42.640;23.370;2023-07-22T10:48:08;94470.28;;;35.51;51.74
5879;BME280;2965;42.640;23.370;2023-07-22T10:50:45;94462.53;;;35.77;50.98
5879;BME280;2965;42.640;23.370;2023-07-22T10:56:15;94457.63;;;36.23;52.57
5879;BME280;2965;42.640;23.370;2023-07-22T11:06:32;94440.84;;;36.65;43.11
5879;BME280;2965;42.640;23.370;2023-07-22T11:08:57;94448.00;;;36.42;41.57
5879;BME280;2965;42.640;23.370;2023-07-22T11:11:40;94441.03;;;36.28;41.94
5879;BME280;2965;42.640;23.370;2023-07-22T11:14:25;94444.09;;;35.99;40.17
5879;BME280;2965;42.640;23.370;2023-07-22T11:16:52;94448.13;;;36.17;40.37
5879;BME280;2965;42.640;23.370;2023-07-22T11:19:20;94447.34;;;36.45;39.88
5879;BME280;2965;42.640;23.370;2023-07-22T11:21:47;94436.81;;;36.59;39.75
5879;BME280;2965;42.640;23.370;2023-07-22T11:24:13;94435.34;;;36.33;41.33
5879;BME280;2965;42.640;23.370;2023-07-22T11:26:39;94447.16;;;36.25;41.46
5879;BME280;2965;42.640;23.370;2023-07-22T11:29:06;94440.78;;;36.33;40.80
5879;BME280;2965;42.640;23.370;2023-07-22T11:31:37;94444.03;;;36.67;41.65
5879;BME280;2965;42.640;23.370;2023-07-22T11:34:03;94437.72;;;36.95;39.37
5879;BME280;2965;42.640;23.370;2023-07-22T11:36:29;94420.84;;;37.05;39.78
5879;BME280;2965;42.640;23.370;2023-07-22T11:39:02;94420.22;;;37.11;39.76
5879;BME280;2965;42.640;23.370;2023-07-22T11:41:27;94423.38;;;37.13;39.65
5879;BME280;2965;42.640;23.370;2023-07-22T11:43:56;94423.63;;;37.24;37.96
5879;BME280;2965;42.640;23.370;2023-07-22T11:46:22;94412.25;;;37.38;39.67
5879;BME280;2965;42.640;23.370;2023-07-22T11:48:51;94409.31;;;37.11;38.43
5879;BME280;2965;42.640;23.370;2023-07-22T11:51:21;94409.22;;;37.24;40.11
5879;BME280;2965;42.640;23.370;2023-07-22T11:53:50;94417.97;;;37.49;38.93
5879;BME280;2965;42.640;23.370;2023-07-22T11:56:21;94429.22;;;37.31;38.58
5879;BME280;2965;42.640;23.370;2023-07-22T11:58:51;94424.88;;;37.11;38.59
5879;BME280;2965;42.640;23.370;2023-07-22T12:01:17;94405.69;;;37.23;38.18
5879;BME280;2965;42.640;23.370;2023-07-22T12:03:43;94412.44;;;37.45;38.64
5879;BME280;2965;42.640;23.370;2023-07-22T12:06:09;94424.88;;;37.11;39.17
5879;BME280;2965;42.640;23.370;2023-07-22T12:08:35;94411.47;;;37.37;37.75
5879;BME280;2965;42.640;23.370;2023-07-22T12:11:01;94408.50;;;37.43;38.47
5879;BME280;2965;42.640;23.370;2023-07-22T12:13:27;94398.97;;;37.72;41.00
5879;BME280;2965;42.640;23.370;2023-07-22T12:16:04;94394.47;;;38.18;39.48
5879;BME280;2965;42.640;23.370;2023-07-22T12:18:45;94396.59;;;38.28;37.77
5879;BME280;2965;42.640;23.370;2023-07-22T12:21:11;94386.78;;;38.47;40.13
5879;BME280;2965;42.640;23.370;2023-07-22T12:23:37;94414.56;;;38.10;38.04
5879;BME280;2965;42.640;23.370;2023-07-22T12:26:04;94403.47;;;37.99;37.87
5879;BME280;2965;42.640;23.370;2023-07-22T12:28:29;94393.00;;;38.24;37.58
5879;BME280;2965;42.640;23.370;2023-07-22T12:30:55;94390.59;;;37.45;37.42
5879;BME280;2965;42.640;23.370;2023-07-22T12:33:22;94383.22;;;36.95;38.95
5879;BME280;2965;42.640;23.370;2023-07-22T12:35:49;94392.56;;;36.94;37.66
5879;BME280;2965;42.640;23.370;2023-07-22T12:38:14;94388.56;;;36.91;38.59
5879;BME280;2965;42.640;23.370;2023-07-22T12:40:40;94383.22;;;36.95;39.59
5879;BME280;2965;42.640;23.370;2023-07-22T12:43:05;94386.81;;;37.50;40.65
5879;BME280;2965;42.640;23.370;2023-07-22T12:45:31;94382.50;;;38.03;39.17
5879;BME280;2965;42.640;23.370;2023-07-22T12:47:56;94383.97;;;38.01;38.52
5879;BME280;2965;42.640;23.370;2023-07-22T12:50:21;94373.03;;;38.20;36.90
5879;BME280;2965;42.640;23.370;2023-07-22T12:52:47;94371.38;;;38.58;36.84
5879;BME280;2965;42.640;23.370;2023-07-22T12:55:13;94371.69;;;38.53;36.45
5879;BME280;2965;42.640;23.370;2023-07-22T12:57:38;94375.59;;;38.52;36.07
5879;BME280;2965;42.640;23.370;2023-07-22T13:00:04;94379.94;;;38.33;35.79
5879;BME280;2965;42.640;23.370;2023-07-22T13:02:35;94369.03;;;38.79;35.59
5879;BME280;2965;42.640;23.370;2023-07-22T13:05:01;94367.25;;;39.17;37.41
5879;BME280;2965;42.640;23.370;2023-07-22T13:07:27;94367.16;;;38.83;36.65
5879;BME280;2965;42.640;23.370;2023-07-22T13:09:55;94354.09;;;39.00;34.85
5879;BME280;2965;42.640;23.370;2023-07-22T13:12:22;94342.34;;;39.22;38.79
5879;BME280;2965;42.640;23.370;2023-07-22T13:14:47;94348.34;;;39.05;36.94
5879;BME280;2965;42.640;23.370;2023-07-22T13:17:13;94340.50;;;38.54;34.70
5879;BME280;2965;42.640;23.370;2023-07-22T13:19:38;94338.91;;;38.53;35.03
5879;BME280;2965;42.640;23.370;2023-07-22T13:22:04;94347.28;;;38.86;36.04
5879;BME280;2965;42.640;23.370;2023-07-22T13:24:29;94338.47;;;39.23;40.92
5879;BME280;2965;42.640;23.370;2023-07-22T13:26:55;94340.34;;;39.19;38.52
5879;BME280;2965;42.640;23.370;2023-07-22T13:29:20;94345.69;;;39.39;39.44
5879;BME280;2965;42.640;23.370;2023-07-22T13:31:45;94339.66;;;39.56;39.05
5879;BME280;2965;42.640;23.370;2023-07-22T13:34:11;94339.56;;;39.49;38.73
5879;BME280;2965;42.640;23.370;2023-07-22T13:36:36;94338.09;;;39.55;36.52
5879;BME280;2965;42.640;23.370;2023-07-22T13:39:02;94327.22;;;39.62;38.54
5879;BME280;2965;42.640;23.370;2023-07-22T13:41:28;94330.16;;;40.10;36.63
5879;BME280;2965;42.640;23.370;2023-07-22T13:43:53;94318.38;;;40.43;38.54
5879;BME280;2965;42.640;23.370;2023-07-22T13:46:19;94314.63;;;40.62;36.85
5879;BME280;2965;42.640;23.370;2023-07-22T13:48:45;94324.81;;;40.24;38.32
5879;BME280;2965;42.640;23.370;2023-07-22T13:51:10;94319.97;;;40.07;34.51
5879;BME280;2965;42.640;23.370;2023-07-22T13:53:35;94322.84;;;40.21;36.10
5879;BME280;2965;42.640;23.370;2023-07-22T13:56:01;94310.25;;;40.54;36.61
5879;BME280;2965;42.640;23.370;2023-07-22T13:58:26;94305.44;;;40.44;36.29
5879;BME280;2965;42.640;23.370;2023-07-22T14:00:51;94311.03;;;39.76;35.96
5879;BME280;2965;42.640;23.370;2023-07-22T14:03:17;94318.53;;;39.53;34.55
5879;BME280;2965;42.640;23.370;2023-07-22T14:05:42;94316.22;;;39.55;33.76
5879;BME280;2965;42.640;23.370;2023-07-22T14:08:07;94320.19;;;39.61;34.66
5879;BME280;2965;42.640;23.370;2023-07-22T14:10:33;94320.47;;;39.82;37.58
5879;BME280;2965;42.640;23.370;2023-07-22T14:12:58;94327.00;;;40.08;36.39
5879;BME280;2965;42.640;23.370;2023-07-22T14:15:24;94313.19;;;40.34;39.08
5879;BME280;2965;42.640;23.370;2023-07-22T14:17:49;94318.63;;;40.31;36.28
5879;BME280;2965;42.640;23.370;2023-07-22T14:20:14;94326.13;;;40.00;36.49
5879;BME280;2965;42.640;23.370;2023-07-22T14:22:41;94335.66;;;40.10;36.02
5879;BME280;2965;42.640;23.370;2023-07-22T14:25:07;94330.03;;;40.37;34.70
5879;BME280;2965;42.640;23.370;2023-07-22T14:27:33;94341.25;;;39.87;34.07
5879;BME280;2965;42.640;23.370;2023-07-22T14:30:00;94328.16;;;40.07;33.36
5879;BME280;2965;42.640;23.370;2023-07-22T14:32:25;94334.91;;;40.13;37.51
5879;BME280;2965;42.640;23.370;2023-07-22T14:37:24;94346.41;;;39.96;38.13
5879;BME280;2965;42.640;23.370;2023-07-22T14:39:49;94346.66;;;39.50;35.49
5879;BME280;2965;42.640;23.370;2023-07-22T14:42:15;94343.88;;;39.76;36.59
5879;BME280;2965;42.640;23.370;2023-07-22T14:44:40;94341.97;;;39.50;38.63
5879;BME280;2965;42.640;23.370;2023-07-22T14:47:06;94339.63;;;39.82;36.35
5879;BME280;2965;42.640;23.370;2023-07-22T14:49:31;94330.97;;;39.47;33.56
5879;BME280;2965;42.640;23.370;2023-07-22T14:51:56;94336.34;;;39.40;35.29
5879;BME280;2965;42.640;23.370;2023-07-22T14:54:22;94329.47;;;39.53;35.67
5879;BME280;2965;42.640;23.370;2023-07-22T14:56:48;94328.81;;;39.63;34.87
5879;BME280;2965;42.640;23.370;2023-07-22T14:59:15;94330.81;;;40.00;34.89
5879;BME280;2965;42.640;23.370;2023-07-22T15:01:41;94329.25;;;39.99;34.81
5879;BME280;2965;42.640;23.370;2023-07-22T15:04:09;94331.41;;;40.16;37.94
5879;BME280;2965;42.640;23.370;2023-07-22T15:06:35;94335.03;;;40.27;37.53
5879;BME280;2965;42.640;23.370;2023-07-22T15:09:02;94336.78;;;39.75;35.38
5879;BME280;2965;42.640;23.370;2023-07-22T15:11:28;94335.94;;;39.11;38.99
5879;BME280;2965;42.640;23.370;2023-07-22T15:13:53;94335.81;;;39.04;42.89
5879;BME280;2965;42.640;23.370;2023-07-22T15:16:19;94334.25;;;39.59;41.33
5879;BME280;2965;42.640;23.370;2023-07-22T15:18:44;94337.88;;;40.01;45.91
5879;BME280;2965;42.640;23.370;2023-07-22T15:21:09;94340.13;;;39.92;36.37
5879;BME280;2965;42.640;23.370;2023-07-22T15:23:35;94340.69;;;39.74;35.31
5879;BME280;2965;42.640;23.370;2023-07-22T15:26:00;94342.75;;;39.51;40.53
5879;BME280;2965;42.640;23.370;2023-07-22T15:28:26;94337.63;;;38.70;37.53
5879;BME280;2965;42.640;23.370;2023-07-22T15:30:53;94326.38;;;38.98;40.12
5879;BME280;2965;42.640;23.370;2023-07-22T15:33:19;94327.84;;;39.18;37.43
5879;BME280;2965;42.640;23.370;2023-07-22T15:35:44;94333.84;;;39.27;37.28
5879;BME280;2965;42.640;23.370;2023-07-22T15:38:10;94329.97;;;39.62;38.19
5879;BME280;2965;42.640;23.370;2023-07-22T15:40:36;94327.06;;;39.48;41.33
5879;BME280;2965;42.640;23.370;2023-07-22T15:43:01;94338.34;;;39.16;37.52
5879;BME280;2965;42.640;23.370;2023-07-22T15:45:27;94339.91;;;39.17;36.67
5879;BME280;2965;42.640;23.370;2023-07-22T15:47:52;94341.16;;;39.50;34.79
5879;BME280;2965;42.640;23.370;2023-07-22T15:50:18;94335.16;;;39.67;43.71
5879;BME280;2965;42.640;23.370;2023-07-22T15:52:44;94320.38;;;39.75;39.54
5879;BME280;2965;42.640;23.370;2023-07-22T15:55:11;94319.75;;;38.99;37.27
5879;BME280;2965;42.640;23.370;2023-07-22T15:57:36;94324.31;;;38.68;41.65
5879;BME280;2965;42.640;23.370;2023-07-22T16:00:02;94319.31;;;38.70;42.36
5879;BME280;2965;42.640;23.370;2023-07-22T16:02:27;94316.00;;;38.15;44.61
5879;BME280;2965;42.640;23.370;2023-07-22T16:04:53;94327.63;;;37.50;41.05
5879;BME280;2965;42.640;23.370;2023-07-22T16:07:18;94320.88;;;37.09;39.19
5879;BME280;2965;42.640;23.370;2023-07-22T16:09:44;94323.88;;;37.04;41.64
5879;BME280;2965;42.640;23.370;2023-07-22T16:12:09;94329.88;;;36.78;41.01
5879;BME280;2965;42.640;23.370;2023-07-22T16:14:35;94323.72;;;36.97;42.75
5879;BME280;2965;42.640;23.370;2023-07-22T16:17:00;94315.59;;;37.16;45.29
5879;BME280;2965;42.640;23.370;2023-07-22T16:19:26;94319.19;;;37.20;46.10
5879;BME280;2965;42.640;23.370;2023-07-22T16:21:52;94332.28;;;37.50;47.05
5879;BME280;2965;42.640;23.370;2023-07-22T16:24:17;94332.13;;;37.62;48.13
5879;BME280;2965;42.640;23.370;2023-07-22T16:26:42;94323.09;;;37.58;45.48
5879;BME280;2965;42.640;23.370;2023-07-22T16:29:08;94313.91;;;37.66;45.30
5879;BME280;2965;42.640;23.370;2023-07-22T16:31:33;94301.41;;;37.65;47.04
5879;BME280;2965;42.640;23.370;2023-07-22T16:33:59;94314.50;;;37.95;54.22
5879;BME280;2965;42.640;23.370;2023-07-22T16:36:26;94311.69;;;38.14;58.64
5879;BME280;2965;42.640;23.370;2023-07-22T16:38:52;94305.69;;;38.28;59.31
5879;BME280;2965;42.640;23.370;2023-07-22T16:41:17;94305.16;;;38.42;59.82
5879;BME280;2965;42.640;23.370;2023-07-22T16:43:43;94298.66;;;38.27;62.15
5879;BME280;2965;42.640;23.370;2023-07-22T16:46:08;94294.63;;;38.21;61.52
5879;BME280;2965;42.640;23.370;2023-07-22T16:48:33;94304.97;;;38.08;63.84
5879;BME280;2965;42.640;23.370;2023-07-22T16:50:59;94311.00;;;38.17;63.00
5879;BME280;2965;42.640;23.370;2023-07-22T16:53:24;94314.06;;;38.16;62.30
5879;BME280;2965;42.640;23.370;2023-07-22T16:55:50;94317.81;;;38.07;64.09
5879;BME280;2965;42.640;23.370;2023-07-22T16:58:16;94330.97;;;38.02;64.80
5879;BME280;2965;42.640;23.370;2023-07-22T17:00:41;94341.25;;;37.70;66.15
5879;BME280;2965;42.640;23.370;2023-07-22T17:03:06;94360.97;;;37.44;62.75
5879;BME280;2965;42.640;23.370;2023-07-22T17:05:32;94360.91;;;36.73;61.28
5879;BME280;2965;42.640;23.370;2023-07-22T17:07:59;94367.03;;;36.70;61.13
5879;BME280;2965;42.640;23.370;2023-07-22T17:10:28;94374.19;;;36.59;65.35
5879;BME280;2965;42.640;23.370;2023-07-22T17:12:53;94372.94;;;36.56;63.74
5879;BME280;2965;42.640;23.370;2023-07-22T17:15:19;94372.00;;;36.49;67.03
5879;BME280;2965;42.640;23.370;2023-07-22T17:17:44;94369.31;;;36.36;66.71
5879;BME280;2965;42.640;23.370;2023-07-22T17:20:11;94364.41;;;36.26;66.57
5879;BME280;2965;42.640;23.370;2023-07-22T17:22:37;94374.72;;;36.05;67.63